sensor_id;sensor_type;location;lat;lon;timestamp;P1;durP1;ratioP1;P2;durP2;ratioP2
75760;SDS011;64373;46.136;8.830;2023-02-11T00:00:03;5.50;;;2.95;;
75760;SDS011;64373;46.136;8.830;2023-02-11T00:02:30;5.20;;;2.55;;
75760;SDS011;64373;46.136;8.830;2023-02-11T00:04:57;5.18;;;2.25;;
75760;SDS011;64373;46.136;8.830;2023-02-11T00:07:22;5.32;;;2.40;;
75760;SDS011;64373;46.136;8.830;2023-02-11T00:09:48;4.80;;;2.13;;
75760;SDS011;64373;46.136;8.830;2023-02-11T00:12:14;3.60;;;1.70;;
75760;SDS011;64373;46.136;8.830;2023-02-11T00:14:39;5.60;;;2.60;;
75760;SDS011;64373;46.136;8.830;2023-02-11T00:17:05;5.90;;;2.75;;
75760;SDS011;64373;46.136;8.830;2023-02-11T00:19:30;5.25;;;2.65;;
75760;SDS011;64373;46.136;8.830;2023-02-11T00:21:56;7.38;;;3.00;;
75760;SDS011;64373;46.136;8.830;2023-02-11T00:24:22;6.95;;;3.13;;
75760;SDS011;64373;46.136;8.830;2023-02-11T00:26:47;4.88;;;2.33;;
75760;SDS011;64373;46.136;8.830;2023-02-11T00:29:12;4.05;;;1.95;;
75760;SDS011;64373;46.136;8.830;2023-02-11T00:31:38;5.55;;;2.33;;
75760;SDS011;64373;46.136;8.830;2023-02-11T00:34:04;5.25;;;2.20;;
75760;SDS011;64373;46.136;8.830;2023-02-11T00:36:29;4.13;;;2.00;;
75760;SDS011;64373;46.136;8.830;2023-02-11T00:38:56;4.57;;;2.70;;
75760;SDS011;64373;46.136;8.830;2023-02-11T00:41:22;6.00;;;3.22;;
75760;SDS011;64373;46.136;8.830;2023-02-11T00:43:48;6.88;;;3.42;;
75760;SDS011;64373;46.136;8.830;2023-02-11T00:46:14;8.93;;;3.55;;
75760;SDS011;64373;46.136;8.830;2023-02-11T00:48:40;6.18;;;2.88;;
75760;SDS011;64373;46.136;8.830;2023-02-11T00:51:06;5.18;;;2.30;;
75760;SDS011;64373;46.136;8.830;2023-02-11T00:53:32;4.57;;;1.98;;
75760;SDS011;64373;46.136;8.830;2023-02-11T00:55:58;4.68;;;2.20;;
75760;SDS011;64373;46.136;8.830;2023-02-11T00:58:25;6.20;;;2.75;;
75760;SDS011;64373;46.136;8.830;2023-02-11T01:00:51;5.50;;;2.45;;
75760;SDS011;64373;46.136;8.830;2023-02-11T01:03:18;4.60;;;2.80;;
75760;SDS011;64373;46.136;8.830;2023-02-11T01:05:43;7.22;;;3.42;;
75760;SDS011;64373;46.136;8.830;2023-02-11T01:08:09;5.43;;;2.80;;
75760;SDS011;64373;46.136;8.830;2023-02-11T01:10:35;3.80;;;1.90;;
75760;SDS011;64373;46.136;8.830;2023-02-11T01:13:00;3.75;;;2.13;;
75760;SDS011;64373;46.136;8.830;2023-02-11T01:15:26;4.40;;;2.40;;
75760;SDS011;64373;46.136;8.830;2023-02-11T01:17:52;6.13;;;2.80;;
75760;SDS011;64373;46.136;8.830;2023-02-11T01:20:19;4.15;;;2.08;;
75760;SDS011;64373;46.136;8.830;2023-02-11T01:22:46;5.00;;;2.33;;
75760;SDS011;64373;46.136;8.830;2023-02-11T01:25:12;5.18;;;2.55;;
75760;SDS011;64373;46.136;8.830;2023-02-11T01:27:37;4.82;;;2.47;;
75760;SDS011;64373;46.136;8.830;2023-02-11T01:30:03;4.80;;;2.03;;
75760;SDS011;64373;46.136;8.830;2023-02-11T01:32:30;4.60;;;2.38;;
75760;SDS011;64373;46.136;8.830;2023-02-11T01:34:56;4.47;;;2.45;;
75760;SDS011;64373;46.136;8.830;2023-02-11T01:37:21;4.90;;;2.33;;
75760;SDS011;64373;46.136;8.830;2023-02-11T01:39:47;2.50;;;1.13;;
75760;SDS011;64373;46.136;8.830;2023-02-11T01:42:22;1.88;;;1.20;;
75760;SDS011;64373;46.136;8.830;2023-02-11T01:44:51;5.47;;;2.88;;
75760;SDS011;64373;46.136;8.830;2023-02-11T01:47:19;4.60;;;2.38;;
75760;SDS011;64373;46.136;8.830;2023-02-11T01:49:46;5.55;;;2.30;;
75760;SDS011;64373;46.136;8.830;2023-02-11T01:52:22;7.78;;;3.35;;
75760;SDS011;64373;46.136;8.830;2023-02-11T01:54:54;4.22;;;2.20;;
75760;SDS011;64373;46.136;8.830;2023-02-11T01:57:43;3.22;;;1.42;;
75760;SDS011;64373;46.136;8.830;2023-02-11T02:05:28;2.15;;;1.30;;
75760;SDS011;64373;46.136;8.830;2023-02-11T02:08:00;3.63;;;1.40;;
75760;SDS011;64373;46.136;8.830;2023-02-11T02:10:50;3.60;;;1.80;;
75760;SDS011;64373;46.136;8.830;2023-02-11T02:13:20;5.00;;;2.30;;
75760;SDS011;64373;46.136;8.830;2023-02-11T02:15:54;2.83;;;1.40;;
75760;SDS011;64373;46.136;8.830;2023-02-11T02:18:25;3.42;;;1.85;;
75760;SDS011;64373;46.136;8.830;2023-02-11T02:26:35;2.67;;;1.42;;
75760;SDS011;64373;46.136;8.830;2023-02-11T02:34:50;3.38;;;1.83;;
75760;SDS011;64373;46.136;8.830;2023-02-11T02:37:33;3.15;;;1.10;;
75760;SDS011;64373;46.136;8.830;2023-02-11T02:40:04;2.55;;;1.38;;
75760;SDS011;64373;46.136;8.830;2023-02-11T02:42:34;2.78;;;1.33;;
75760;SDS011;64373;46.136;8.830;2023-02-11T02:44:59;2.35;;;1.15;;
75760;SDS011;64373;46.136;8.830;2023-02-11T02:47:26;4.55;;;2.22;;
75760;SDS011;64373;46.136;8.830;2023-02-11T02:49:51;3.05;;;1.35;;
75760;SDS011;64373;46.136;8.830;2023-02-11T03:06:02;2.83;;;1.27;;
75760;SDS011;64373;46.136;8.830;2023-02-11T03:08:55;1.05;;;0.82;;
75760;SDS011;64373;46.136;8.830;2023-02-11T03:11:26;2.13;;;1.30;;
75760;SDS011;64373;46.136;8.830;2023-02-11T03:13:53;2.10;;;1.10;;
75760;SDS011;64373;46.136;8.830;2023-02-11T03:16:20;1.48;;;1.00;;
75760;SDS011;64373;46.136;8.830;2023-02-11T03:18:52;6.00;;;2.85;;
75760;SDS011;64373;46.136;8.830;2023-02-11T03:21:24;5.72;;;2.85;;
75760;SDS011;64373;46.136;8.830;2023-02-11T03:23:53;2.97;;;1.77;;
75760;SDS011;64373;46.136;8.830;2023-02-11T03:28:48;4.15;;;1.90;;
75760;SDS011;64373;46.136;8.830;2023-02-11T03:31:33;3.45;;;1.50;;
75760;SDS011;64373;46.136;8.830;2023-02-11T03:34:03;3.28;;;1.42;;
75760;SDS011;64373;46.136;8.830;2023-02-11T03:36:53;3.17;;;1.42;;
75760;SDS011;64373;46.136;8.830;2023-02-11T03:39:34;2.83;;;1.67;;
75760;SDS011;64373;46.136;8.830;2023-02-11T03:42:03;4.18;;;1.23;;
75760;SDS011;64373;46.136;8.830;2023-02-11T03:44:32;3.90;;;1.63;;
75760;SDS011;64373;46.136;8.830;2023-02-11T03:47:00;3.67;;;1.80;;
75760;SDS011;64373;46.136;8.830;2023-02-11T03:49:27;5.25;;;2.33;;
75760;SDS011;64373;46.136;8.830;2023-02-11T03:51:53;5.28;;;2.80;;
75760;SDS011;64373;46.136;8.830;2023-02-11T03:54:20;5.65;;;2.95;;
75760;SDS011;64373;46.136;8.830;2023-02-11T03:56:52;4.70;;;2.22;;
75760;SDS011;64373;46.136;8.830;2023-02-11T03:59:19;5.35;;;2.63;;
75760;SDS011;64373;46.136;8.830;2023-02-11T04:01:45;4.20;;;2.03;;
75760;SDS011;64373;46.136;8.830;2023-02-11T04:04:11;4.47;;;2.25;;
75760;SDS011;64373;46.136;8.830;2023-02-11T04:06:37;4.55;;;2.25;;
75760;SDS011;64373;46.136;8.830;2023-02-11T04:09:03;5.20;;;2.28;;
75760;SDS011;64373;46.136;8.830;2023-02-11T04:11:29;4.05;;;2.03;;
75760;SDS011;64373;46.136;8.830;2023-02-11T04:13:55;3.85;;;2.03;;
75760;SDS011;64373;46.136;8.830;2023-02-11T04:16:20;4.80;;;1.77;;
75760;SDS011;64373;46.136;8.830;2023-02-11T04:18:46;3.10;;;1.45;;
75760;SDS011;64373;46.136;8.830;2023-02-11T04:21:11;3.75;;;1.70;;
75760;SDS011;64373;46.136;8.830;2023-02-11T04:23:37;2.08;;;1.20;;
75760;SDS011;64373;46.136;8.830;2023-02-11T04:26:02;1.98;;;1.20;;
75760;SDS011;64373;46.136;8.830;2023-02-11T04:28:28;2.70;;;1.33;;
75760;SDS011;64373;46.136;8.830;2023-02-11T04:30:54;2.63;;;1.50;;
75760;SDS011;64373;46.136;8.830;2023-02-11T04:33:20;1.90;;;1.13;;
75760;SDS011;64373;46.136;8.830;2023-02-11T04:35:46;1.65;;;1.08;;
75760;SDS011;64373;46.136;8.830;2023-02-11T04:38:11;2.33;;;1.33;;
75760;SDS011;64373;46.136;8.830;2023-02-11T04:40:37;2.83;;;1.42;;
75760;SDS011;64373;46.136;8.830;2023-02-11T04:43:03;5.22;;;1.98;;
75760;SDS011;64373;46.136;8.830;2023-02-11T04:45:29;4.47;;;2.35;;
75760;SDS011;64373;46.136;8.830;2023-02-11T04:47:54;2.90;;;1.52;;
75760;SDS011;64373;46.136;8.830;2023-02-11T04:50:20;3.90;;;1.92;;
75760;SDS011;64373;46.136;8.830;2023-02-11T04:52:45;2.83;;;1.70;;
75760;SDS011;64373;46.136;8.830;2023-02-11T04:55:11;2.72;;;1.20;;
75760;SDS011;64373;46.136;8.830;2023-02-11T04:57:37;2.22;;;1.00;;
75760;SDS011;64373;46.136;8.830;2023-02-11T05:00:03;1.88;;;0.82;;
75760;SDS011;64373;46.136;8.830;2023-02-11T05:02:29;1.80;;;0.82;;
75760;SDS011;64373;46.136;8.830;2023-02-11T05:04:54;1.60;;;0.98;;
75760;SDS011;64373;46.136;8.830;2023-02-11T05:07:20;1.60;;;0.90;;
75760;SDS011;64373;46.136;8.830;2023-02-11T05:09:45;1.80;;;0.70;;
75760;SDS011;64373;46.136;8.830;2023-02-11T05:12:11;3.63;;;2.00;;
75760;SDS011;64373;46.136;8.830;2023-02-11T05:14:36;2.20;;;1.13;;
75760;SDS011;64373;46.136;8.830;2023-02-11T05:17:02;4.72;;;2.50;;
75760;SDS011;64373;46.136;8.830;2023-02-11T05:19:27;3.72;;;1.60;;
75760;SDS011;64373;46.136;8.830;2023-02-11T05:21:53;1.80;;;1.13;;
75760;SDS011;64373;46.136;8.830;2023-02-11T05:24:18;4.38;;;1.38;;
75760;SDS011;64373;46.136;8.830;2023-02-11T05:26:44;4.20;;;1.92;;
75760;SDS011;64373;46.136;8.830;2023-02-11T05:29:09;4.15;;;2.20;;
75760;SDS011;64373;46.136;8.830;2023-02-11T05:31:35;3.75;;;2.10;;
75760;SDS011;64373;46.136;8.830;2023-02-11T05:34:00;3.55;;;1.80;;
75760;SDS011;64373;46.136;8.830;2023-02-11T05:36:28;2.53;;;1.40;;
75760;SDS011;64373;46.136;8.830;2023-02-11T05:38:54;2.03;;;1.08;;
75760;SDS011;64373;46.136;8.830;2023-02-11T05:41:19;2.80;;;1.17;;
75760;SDS011;64373;46.136;8.830;2023-02-11T05:43:46;2.15;;;1.17;;
75760;SDS011;64373;46.136;8.830;2023-02-11T05:46:15;3.22;;;1.70;;
75760;SDS011;64373;46.136;8.830;2023-02-11T05:48:41;5.38;;;2.38;;
75760;SDS011;64373;46.136;8.830;2023-02-11T05:51:07;5.20;;;2.15;;
75760;SDS011;64373;46.136;8.830;2023-02-11T05:53:33;2.90;;;1.73;;
75760;SDS011;64373;46.136;8.830;2023-02-11T05:55:58;1.92;;;1.30;;
75760;SDS011;64373;46.136;8.830;2023-02-11T05:58:24;4.55;;;1.67;;
75760;SDS011;64373;46.136;8.830;2023-02-11T06:00:50;2.75;;;1.17;;
75760;SDS011;64373;46.136;8.830;2023-02-11T06:03:15;2.50;;;1.10;;
75760;SDS011;64373;46.136;8.830;2023-02-11T06:05:42;2.65;;;1.25;;
75760;SDS011;64373;46.136;8.830;2023-02-11T06:08:08;3.60;;;1.70;;
75760;SDS011;64373;46.136;8.830;2023-02-11T06:10:33;2.65;;;1.40;;
75760;SDS011;64373;46.136;8.830;2023-02-11T06:12:59;2.75;;;1.42;;
75760;SDS011;64373;46.136;8.830;2023-02-11T06:15:25;2.67;;;1.00;;
75760;SDS011;64373;46.136;8.830;2023-02-11T06:17:51;1.35;;;0.95;;
75760;SDS011;64373;46.136;8.830;2023-02-11T06:20:16;1.80;;;1.05;;
75760;SDS011;64373;46.136;8.830;2023-02-11T06:22:42;1.63;;;0.63;;
75760;SDS011;64373;46.136;8.830;2023-02-11T06:25:08;4.38;;;1.70;;
75760;SDS011;64373;46.136;8.830;2023-02-11T06:27:35;3.88;;;1.33;;
75760;SDS011;64373;46.136;8.830;2023-02-11T06:30:01;1.85;;;1.15;;
75760;SDS011;64373;46.136;8.830;2023-02-11T06:32:27;1.77;;;0.73;;
75760;SDS011;64373;46.136;8.830;2023-02-11T06:34:53;2.63;;;1.20;;
75760;SDS011;64373;46.136;8.830;2023-02-11T06:37:18;1.98;;;0.93;;
75760;SDS011;64373;46.136;8.830;2023-02-11T06:39:44;2.88;;;1.45;;
75760;SDS011;64373;46.136;8.830;2023-02-11T06:42:09;1.90;;;0.80;;
75760;SDS011;64373;46.136;8.830;2023-02-11T06:44:35;2.33;;;0.98;;
75760;SDS011;64373;46.136;8.830;2023-02-11T06:47:00;2.30;;;1.13;;
75760;SDS011;64373;46.136;8.830;2023-02-11T06:49:26;1.83;;;1.00;;
75760;SDS011;64373;46.136;8.830;2023-02-11T06:51:51;2.10;;;1.13;;
75760;SDS011;64373;46.136;8.830;2023-02-11T06:54:17;3.05;;;1.40;;
75760;SDS011;64373;46.136;8.830;2023-02-11T06:56:42;3.30;;;1.65;;
75760;SDS011;64373;46.136;8.830;2023-02-11T06:59:09;2.60;;;1.20;;
75760;SDS011;64373;46.136;8.830;2023-02-11T07:01:39;3.15;;;1.60;;
75760;SDS011;64373;46.136;8.830;2023-02-11T07:04:04;3.20;;;1.25;;
75760;SDS011;64373;46.136;8.830;2023-02-11T07:06:30;2.28;;;1.10;;
75760;SDS011;64373;46.136;8.830;2023-02-11T07:08:56;0.95;;;0.68;;
75760;SDS011;64373;46.136;8.830;2023-02-11T07:11:26;2.95;;;1.23;;
75760;SDS011;64373;46.136;8.830;2023-02-11T07:13:53;3.78;;;2.17;;
75760;SDS011;64373;46.136;8.830;2023-02-11T07:16:20;2.55;;;1.60;;
75760;SDS011;64373;46.136;8.830;2023-02-11T07:18:46;3.17;;;1.40;;
75760;SDS011;64373;46.136;8.830;2023-02-11T07:21:13;3.67;;;1.75;;
75760;SDS011;64373;46.136;8.830;2023-02-11T07:23:41;2.58;;;1.45;;
75760;SDS011;64373;46.136;8.830;2023-02-11T07:26:08;3.17;;;1.50;;
75760;SDS011;64373;46.136;8.830;2023-02-11T07:28:36;3.40;;;1.70;;
75760;SDS011;64373;46.136;8.830;2023-02-11T07:31:09;3.70;;;1.90;;
75760;SDS011;64373;46.136;8.830;2023-02-11T07:33:39;3.00;;;1.65;;
75760;SDS011;64373;46.136;8.830;2023-02-11T07:36:05;3.15;;;1.52;;
75760;SDS011;64373;46.136;8.830;2023-02-11T07:38:32;1.10;;;0.93;;
75760;SDS011;64373;46.136;8.830;2023-02-11T07:40:59;1.92;;;1.02;;
75760;SDS011;64373;46.136;8.830;2023-02-11T07:43:25;1.77;;;0.80;;
75760;SDS011;64373;46.136;8.830;2023-02-11T07:45:51;2.20;;;0.82;;
75760;SDS011;64373;46.136;8.830;2023-02-11T07:48:16;2.05;;;0.85;;
75760;SDS011;64373;46.136;8.830;2023-02-11T07:50:42;1.38;;;0.90;;
75760;SDS011;64373;46.136;8.830;2023-02-11T07:53:07;1.73;;;0.60;;
75760;SDS011;64373;46.136;8.830;2023-02-11T07:55:33;1.35;;;0.70;;
75760;SDS011;64373;46.136;8.830;2023-02-11T07:57:58;1.38;;;0.70;;
75760;SDS011;64373;46.136;8.830;2023-02-11T08:00:24;2.88;;;1.85;;
75760;SDS011;64373;46.136;8.830;2023-02-11T08:02:49;2.45;;;1.23;;
75760;SDS011;64373;46.136;8.830;2023-02-11T08:05:15;2.47;;;1.30;;
75760;SDS011;64373;46.136;8.830;2023-02-11T08:07:40;1.92;;;1.00;;
75760;SDS011;64373;46.136;8.830;2023-02-11T08:10:06;1.25;;;1.00;;
75760;SDS011;64373;46.136;8.830;2023-02-11T08:12:32;1.80;;;0.90;;
75760;SDS011;64373;46.136;8.830;2023-02-11T08:14:57;1.15;;;0.50;;
75760;SDS011;64373;46.136;8.830;2023-02-11T08:17:23;1.60;;;0.50;;
75760;SDS011;64373;46.136;8.830;2023-02-11T08:19:48;2.08;;;0.80;;
75760;SDS011;64373;46.136;8.830;2023-02-11T08:22:14;3.15;;;1.30;;
75760;SDS011;64373;46.136;8.830;2023-02-11T08:24:39;2.25;;;0.90;;
75760;SDS011;64373;46.136;8.830;2023-02-11T08:27:05;1.48;;;0.90;;
75760;SDS011;64373;46.136;8.830;2023-02-11T08:29:30;2.33;;;1.00;;
75760;SDS011;64373;46.136;8.830;2023-02-11T08:31:56;2.17;;;0.90;;
75760;SDS011;64373;46.136;8.830;2023-02-11T08:34:21;1.48;;;0.85;;
75760;SDS011;64373;46.136;8.830;2023-02-11T08:36:47;1.27;;;0.60;;
75760;SDS011;64373;46.136;8.830;2023-02-11T08:39:16;0.75;;;0.60;;
75760;SDS011;64373;46.136;8.830;2023-02-11T08:44:09;0.63;;;0.40;;
75760;SDS011;64373;46.136;8.830;2023-02-11T08:46:35;2.25;;;1.13;;
75760;SDS011;64373;46.136;8.830;2023-02-11T08:49:01;2.47;;;1.45;;
75760;SDS011;64373;46.136;8.830;2023-02-11T08:51:27;3.88;;;1.63;;
75760;SDS011;64373;46.136;8.830;2023-02-11T08:53:57;2.00;;;0.90;;
75760;SDS011;64373;46.136;8.830;2023-02-11T08:56:23;2.67;;;0.93;;
75760;SDS011;64373;46.136;8.830;2023-02-11T08:58:49;2.17;;;1.25;;
75760;SDS011;64373;46.136;8.830;2023-02-11T09:01:17;1.38;;;0.60;;
75760;SDS011;64373;46.136;8.830;2023-02-11T09:03:44;1.38;;;0.85;;
75760;SDS011;64373;46.136;8.830;2023-02-11T09:06:10;1.10;;;0.73;;
75760;SDS011;64373;46.136;8.830;2023-02-11T09:08:39;1.00;;;0.60;;
75760;SDS011;64373;46.136;8.830;2023-02-11T09:11:08;4.20;;;1.35;;
75760;SDS011;64373;46.136;8.830;2023-02-11T09:13:34;2.55;;;1.02;;
75760;SDS011;64373;46.136;8.830;2023-02-11T09:16:01;2.60;;;1.20;;
75760;SDS011;64373;46.136;8.830;2023-02-11T09:18:28;2.40;;;0.93;;
75760;SDS011;64373;46.136;8.830;2023-02-11T09:21:04;1.50;;;1.00;;
75760;SDS011;64373;46.136;8.830;2023-02-11T09:26:08;1.85;;;0.70;;
75760;SDS011;64373;46.136;8.830;2023-02-11T09:28:36;4.35;;;1.80;;
75760;SDS011;64373;46.136;8.830;2023-02-11T09:31:08;2.70;;;1.35;;
75760;SDS011;64373;46.136;8.830;2023-02-11T09:33:37;2.85;;;1.55;;
75760;SDS011;64373;46.136;8.830;2023-02-11T09:36:04;3.92;;;1.80;;
75760;SDS011;64373;46.136;8.830;2023-02-11T09:38:30;2.70;;;1.35;;
75760;SDS011;64373;46.136;8.830;2023-02-11T09:40:56;2.53;;;1.40;;
75760;SDS011;64373;46.136;8.830;2023-02-11T09:43:22;1.77;;;1.20;;
75760;SDS011;64373;46.136;8.830;2023-02-11T09:45:52;2.97;;;1.40;;
75760;SDS011;64373;46.136;8.830;2023-02-11T09:48:19;3.70;;;2.33;;
75760;SDS011;64373;46.136;8.830;2023-02-11T09:50:48;3.78;;;2.10;;
75760;SDS011;64373;46.136;8.830;2023-02-11T09:53:31;2.50;;;1.50;;
75760;SDS011;64373;46.136;8.830;2023-02-11T09:56:02;1.65;;;1.02;;
75760;SDS011;64373;46.136;8.830;2023-02-11T09:58:35;1.65;;;0.98;;
75760;SDS011;64373;46.136;8.830;2023-02-11T10:01:08;1.67;;;0.88;;
75760;SDS011;64373;46.136;8.830;2023-02-11T10:14:35;4.57;;;2.50;;
75760;SDS011;64373;46.136;8.830;2023-02-11T10:22:40;2.30;;;1.30;;
75760;SDS011;64373;46.136;8.830;2023-02-11T10:25:20;3.30;;;1.50;;
75760;SDS011;64373;46.136;8.830;2023-02-11T10:27:51;0.93;;;0.80;;
75760;SDS011;64373;46.136;8.830;2023-02-11T10:35:26;2.08;;;1.08;;
75760;SDS011;64373;46.136;8.830;2023-02-11T10:37:52;2.08;;;0.98;;
75760;SDS011;64373;46.136;8.830;2023-02-11T10:40:21;2.42;;;1.00;;
75760;SDS011;64373;46.136;8.830;2023-02-11T10:42:49;1.10;;;0.70;;
75760;SDS011;64373;46.136;8.830;2023-02-11T10:48:06;1.45;;;0.70;;
75760;SDS011;64373;46.136;8.830;2023-02-11T10:53:33;1.42;;;0.70;;
75760;SDS011;64373;46.136;8.830;2023-02-11T10:56:00;0.43;;;0.40;;
75760;SDS011;64373;46.136;8.830;2023-02-11T10:58:29;0.98;;;0.60;;
75760;SDS011;64373;46.136;8.830;2023-02-11T11:00:56;0.95;;;0.47;;
75760;SDS011;64373;46.136;8.830;2023-02-11T11:03:24;0.40;;;0.30;;
75760;SDS011;64373;46.136;8.830;2023-02-11T11:05:51;0.70;;;0.40;;
75760;SDS011;64373;46.136;8.830;2023-02-11T11:08:20;1.00;;;0.70;;
75760;SDS011;64373;46.136;8.830;2023-02-11T11:10:47;1.70;;;1.30;;
75760;SDS011;64373;46.136;8.830;2023-02-11T11:13:31;1.50;;;0.85;;
75760;SDS011;64373;46.136;8.830;2023-02-11T11:18:42;1.70;;;0.68;;
75760;SDS011;64373;46.136;8.830;2023-02-11T11:23:39;1.42;;;0.43;;
75760;SDS011;64373;46.136;8.830;2023-02-11T11:26:12;0.77;;;0.47;;
75760;SDS011;64373;46.136;8.830;2023-02-11T11:29:01;0.77;;;0.40;;
75760;SDS011;64373;46.136;8.830;2023-02-11T11:31:33;1.25;;;0.40;;
75760;SDS011;64373;46.136;8.830;2023-02-11T11:34:02;0.80;;;0.40;;
75760;SDS011;64373;46.136;8.830;2023-02-11T11:36:43;0.73;;;0.40;;
75760;SDS011;64373;46.136;8.830;2023-02-11T11:41:48;1.40;;;1.00;;
75760;SDS011;64373;46.136;8.830;2023-02-11T11:44:26;1.20;;;0.65;;
75760;SDS011;64373;46.136;8.830;2023-02-11T11:55:02;2.90;;;1.92;;
75760;SDS011;64373;46.136;8.830;2023-02-11T11:57:34;1.83;;;1.35;;
75760;SDS011;64373;46.136;8.830;2023-02-11T12:00:03;2.45;;;1.13;;
75760;SDS011;64373;46.136;8.830;2023-02-11T12:02:34;3.67;;;2.10;;
75760;SDS011;64373;46.136;8.830;2023-02-11T12:07:54;4.72;;;1.83;;
75760;SDS011;64373;46.136;8.830;2023-02-11T12:10:46;3.90;;;2.33;;
75760;SDS011;64373;46.136;8.830;2023-02-11T12:13:26;5.93;;;3.05;;
75760;SDS011;64373;46.136;8.830;2023-02-11T12:22:11;3.05;;;1.90;;
75760;SDS011;64373;46.136;8.830;2023-02-11T12:24:58;4.65;;;2.45;;
75760;SDS011;64373;46.136;8.830;2023-02-11T12:27:36;2.83;;;1.65;;
75760;SDS011;64373;46.136;8.830;2023-02-11T12:30:15;4.63;;;1.73;;
75760;SDS011;64373;46.136;8.830;2023-02-11T12:33:10;2.17;;;1.15;;
75760;SDS011;64373;46.136;8.830;2023-02-11T12:35:52;2.83;;;1.80;;
75760;SDS011;64373;46.136;8.830;2023-02-11T12:44:34;4.28;;;2.30;;
75760;SDS011;64373;46.136;8.830;2023-02-11T12:52:50;3.83;;;2.03;;
75760;SDS011;64373;46.136;8.830;2023-02-11T12:55:24;3.25;;;1.70;;
75760;SDS011;64373;46.136;8.830;2023-02-11T12:57:51;2.97;;;1.35;;
75760;SDS011;64373;46.136;8.830;2023-02-11T13:00:22;2.58;;;1.42;;
75760;SDS011;64373;46.136;8.830;2023-02-11T13:02:59;1.80;;;1.00;;
75760;SDS011;64373;46.136;8.830;2023-02-11T13:05:47;1.83;;;1.13;;
75760;SDS011;64373;46.136;8.830;2023-02-11T13:08:24;3.20;;;2.03;;
75760;SDS011;64373;46.136;8.830;2023-02-11T13:10:56;3.58;;;2.15;;
75760;SDS011;64373;46.136;8.830;2023-02-11T13:16:04;3.78;;;1.60;;
75760;SDS011;64373;46.136;8.830;2023-02-11T13:31:21;5.03;;;1.83;;
75760;SDS011;64373;46.136;8.830;2023-02-11T13:33:51;3.05;;;2.03;;
75760;SDS011;64373;46.136;8.830;2023-02-11T13:36:18;3.30;;;2.00;;
75760;SDS011;64373;46.136;8.830;2023-02-11T13:38:55;4.50;;;2.08;;
75760;SDS011;64373;46.136;8.830;2023-02-11T13:41:30;2.33;;;1.50;;
75760;SDS011;64373;46.136;8.830;2023-02-11T13:44:04;2.25;;;1.20;;
75760;SDS011;64373;46.136;8.830;2023-02-11T13:49:33;2.72;;;1.40;;
75760;SDS011;64373;46.136;8.830;2023-02-11T13:52:05;4.28;;;1.83;;
75760;SDS011;64373;46.136;8.830;2023-02-11T13:54:52;2.72;;;1.50;;
75760;SDS011;64373;46.136;8.830;2023-02-11T13:59:48;2.75;;;1.35;;
75760;SDS011;64373;46.136;8.830;2023-02-11T14:02:20;3.17;;;1.45;;
75760;SDS011;64373;46.136;8.830;2023-02-11T14:05:17;2.92;;;1.52;;
75760;SDS011;64373;46.136;8.830;2023-02-11T14:08:19;3.13;;;1.27;;
75760;SDS011;64373;46.136;8.830;2023-02-11T14:11:09;4.43;;;1.73;;
75760;SDS011;64373;46.136;8.830;2023-02-11T14:16:19;2.10;;;1.27;;
75760;SDS011;64373;46.136;8.830;2023-02-11T14:32:05;1.30;;;0.55;;
75760;SDS011;64373;46.136;8.830;2023-02-11T14:34:55;4.70;;;1.80;;
75760;SDS011;64373;46.136;8.830;2023-02-11T14:37:30;2.92;;;1.75;;
75760;SDS011;64373;46.136;8.830;2023-02-11T14:42:55;3.28;;;1.75;;
75760;SDS011;64373;46.136;8.830;2023-02-11T14:45:24;3.75;;;1.88;;
75760;SDS011;64373;46.136;8.830;2023-02-11T14:50:42;3.22;;;1.73;;
75760;SDS011;64373;46.136;8.830;2023-02-11T14:53:09;3.42;;;1.80;;
75760;SDS011;64373;46.136;8.830;2023-02-11T14:55:40;3.13;;;1.80;;
75760;SDS011;64373;46.136;8.830;2023-02-11T14:58:16;2.28;;;1.27;;
75760;SDS011;64373;46.136;8.830;2023-02-11T15:00:53;1.42;;;1.02;;
75760;SDS011;64373;46.136;8.830;2023-02-11T15:03:36;2.33;;;0.80;;
75760;SDS011;64373;46.136;8.830;2023-02-11T15:06:17;1.55;;;0.90;;
75760;SDS011;64373;46.136;8.830;2023-02-11T15:08:46;2.97;;;2.00;;
75760;SDS011;64373;46.136;8.830;2023-02-11T15:11:17;4.65;;;2.55;;
75760;SDS011;64373;46.136;8.830;2023-02-11T15:13:44;3.58;;;2.05;;
75760;SDS011;64373;46.136;8.830;2023-02-11T15:16:19;2.50;;;1.52;;
75760;SDS011;64373;46.136;8.830;2023-02-11T15:18:49;4.30;;;2.28;;
75760;SDS011;64373;46.136;8.830;2023-02-11T15:21:20;4.55;;;2.20;;
75760;SDS011;64373;46.136;8.830;2023-02-11T15:24:00;3.20;;;1.52;;
75760;SDS011;64373;46.136;8.830;2023-02-11T15:26:31;2.97;;;1.63;;
75760;SDS011;64373;46.136;8.830;2023-02-11T15:28:57;1.98;;;1.15;;
75760;SDS011;64373;46.136;8.830;2023-02-11T15:31:24;1.58;;;0.93;;
75760;SDS011;64373;46.136;8.830;2023-02-11T15:33:51;1.45;;;0.80;;
75760;SDS011;64373;46.136;8.830;2023-02-11T15:36:18;1.55;;;0.60;;
75760;SDS011;64373;46.136;8.830;2023-02-11T15:38:45;1.17;;;0.55;;
75760;SDS011;64373;46.136;8.830;2023-02-11T15:44:25;0.82;;;0.60;;
75760;SDS011;64373;46.136;8.830;2023-02-11T15:46:54;0.75;;;0.60;;
75760;SDS011;64373;46.136;8.830;2023-02-11T15:49:20;1.48;;;1.02;;
75760;SDS011;64373;46.136;8.830;2023-02-11T15:51:47;1.15;;;0.68;;
75760;SDS011;64373;46.136;8.830;2023-02-11T15:54:17;1.80;;;0.90;;
75760;SDS011;64373;46.136;8.830;2023-02-11T15:56:47;1.50;;;0.90;;
75760;SDS011;64373;46.136;8.830;2023-02-11T15:59:18;1.33;;;0.90;;
75760;SDS011;64373;46.136;8.830;2023-02-11T16:01:45;1.10;;;0.98;;
75760;SDS011;64373;46.136;8.830;2023-02-11T16:04:15;2.58;;;1.23;;
75760;SDS011;64373;46.136;8.830;2023-02-11T16:06:42;2.42;;;1.52;;
75760;SDS011;64373;46.136;8.830;2023-02-11T16:19:24;2.78;;;1.30;;
75760;SDS011;64373;46.136;8.830;2023-02-11T16:21:50;1.73;;;1.23;;
75760;SDS011;64373;46.136;8.830;2023-02-11T16:24:23;2.10;;;1.20;;
75760;SDS011;64373;46.136;8.830;2023-02-11T16:27:02;2.15;;;1.30;;
75760;SDS011;64373;46.136;8.830;2023-02-11T16:29:30;3.03;;;1.33;;
75760;SDS011;64373;46.136;8.830;2023-02-11T16:32:04;2.83;;;1.55;;
75760;SDS011;64373;46.136;8.830;2023-02-11T16:34:32;1.70;;;1.05;;
75760;SDS011;64373;46.136;8.830;2023-02-11T16:36:57;2.15;;;1.23;;
75760;SDS011;64373;46.136;8.830;2023-02-11T16:39:23;1.77;;;1.02;;
75760;SDS011;64373;46.136;8.830;2023-02-11T16:41:49;2.80;;;1.30;;
75760;SDS011;64373;46.136;8.830;2023-02-11T16:44:16;2.55;;;1.73;;
75760;SDS011;64373;46.136;8.830;2023-02-11T16:46:42;3.25;;;1.40;;
75760;SDS011;64373;46.136;8.830;2023-02-11T16:51:35;2.63;;;1.33;;
75760;SDS011;64373;46.136;8.830;2023-02-11T16:54:03;2.78;;;1.60;;
75760;SDS011;64373;46.136;8.830;2023-02-11T16:56:29;3.72;;;1.90;;
75760;SDS011;64373;46.136;8.830;2023-02-11T16:58:55;2.45;;;1.70;;
75760;SDS011;64373;46.136;8.830;2023-02-11T17:01:20;2.35;;;1.40;;
75760;SDS011;64373;46.136;8.830;2023-02-11T17:03:46;2.22;;;1.30;;
75760;SDS011;64373;46.136;8.830;2023-02-11T17:06:12;2.00;;;1.23;;
75760;SDS011;64373;46.136;8.830;2023-02-11T17:08:38;2.85;;;1.52;;
75760;SDS011;64373;46.136;8.830;2023-02-11T17:11:04;1.95;;;1.27;;
75760;SDS011;64373;46.136;8.830;2023-02-11T17:13:30;1.95;;;1.25;;
75760;SDS011;64373;46.136;8.830;2023-02-11T17:15:56;1.83;;;1.10;;
75760;SDS011;64373;46.136;8.830;2023-02-11T17:18:21;3.10;;;1.50;;
75760;SDS011;64373;46.136;8.830;2023-02-11T17:20:47;3.28;;;1.50;;
75760;SDS011;64373;46.136;8.830;2023-02-11T17:23:12;1.85;;;1.00;;
75760;SDS011;64373;46.136;8.830;2023-02-11T17:25:38;2.63;;;1.40;;
75760;SDS011;64373;46.136;8.830;2023-02-11T17:28:05;2.58;;;1.17;;
75760;SDS011;64373;46.136;8.830;2023-02-11T17:30:31;4.93;;;2.47;;
75760;SDS011;64373;46.136;8.830;2023-02-11T17:32:56;7.30;;;2.80;;
75760;SDS011;64373;46.136;8.830;2023-02-11T17:35:22;5.22;;;2.88;;
75760;SDS011;64373;46.136;8.830;2023-02-11T17:37:48;4.88;;;2.50;;